Time;durP1;ratioP1;P1;durP2;ratioP2;P2;SDS_P1;SDS_P2;PMS_P1;PMS_P2;Temp;Humidity;BMP_temperature;BMP_pressure;BME280_temperature;BME280_humidity;BME280_pressure;Samples;Min_cycle;Max_cycle;Signal;HPM_P1;HPM_P2
2021/06/02 00:00:40;;;;;;;0.20;0.20;;;13.10;67.00;;;;;;5030535;28;20029;-72
2021/06/02 00:03:09;;;;;;;0.20;0.20;;;13.10;66.60;;;;;;5031837;28;20083;-72
2021/06/02 00:05:34;;;;;;;0.20;0.20;;;13.00;66.30;;;;;;5031758;28;20033;-71
2021/06/02 00:08:00;;;;;;;0.20;0.20;;;13.10;67.00;;;;;;5031729;28;20442;-72
2021/06/02 00:10:27;;;;;;;0.20;0.20;;;13.20;66.50;;;;;;5031803;28;20029;-73
2021/06/02 00:12:53;;;;;;;0.20;0.20;;;13.20;66.70;;;;;;5031799;28;20033;-72
2021/06/02 00:15:19;;;;;;;0.20;0.20;;;13.20;66.50;;;;;;5033233;28;20029;-72
2021/06/02 00:17:45;;;;;;;0.20;0.20;;;13.10;66.90;;;;;;5035665;28;20088;-71
2021/06/02 00:20:12;;;;;;;0.20;0.20;;;13.00;67.90;;;;;;5035754;28;20041;-72
2021/06/02 00:22:39;;;;;;;0.20;0.20;;;13.00;67.90;;;;;;5035582;28;20057;-72
2021/06/02 00:25:07;;;;;;;0.20;0.20;;;13.00;67.50;;;;;;5035639;28;20030;-72
2021/06/02 00:27:34;;;;;;;0.10;0.10;;;13.10;67.20;;;;;;5034256;28;20021;-72
2021/06/02 00:30:02;;;;;;;0.20;0.20;;;13.20;67.10;;;;;;5035781;28;20022;-73
2021/06/02 00:32:29;;;;;;;0.30;0.30;;;13.10;67.30;;;;;;5035436;28;20026;-72
2021/06/02 00:34:57;;;;;;;0.43;0.40;;;12.80;67.90;;;;;;5035516;28;20029;-73
2021/06/02 00:37:23;;;;;;;0.20;0.20;;;12.50;68.90;;;;;;5035297;28;20025;-72
2021/06/02 00:39:49;;;;;;;0.20;0.20;;;12.10;70.30;;;;;;5034092;28;20102;-72
2021/06/02 00:42:16;;;;;;;0.30;0.30;;;11.90;71.00;;;;;;5035224;28;20064;-73
2021/06/02 00:44:42;;;;;;;0.20;0.20;;;11.70;72.20;;;;;;5035321;28;20034;-72
2021/06/02 00:47:07;;;;;;;0.20;0.20;;;11.60;72.70;;;;;;5035403;28;20672;-72
2021/06/02 00:49:33;;;;;;;0.20;0.20;;;11.80;72.80;;;;;;5033943;28;20029;-72
2021/06/02 00:52:00;;;;;;;0.82;0.82;;;11.80;72.40;;;;;;5035080;28;20071;-72
2021/06/02 00:54:30;;;;;;;0.20;0.20;;;11.80;72.00;;;;;;5035136;28;20495;-72
2021/06/02 00:57:18;;;;;;;0.20;0.20;;;11.70;72.30;;;;;;5035086;28;20029;-72
2021/06/02 01:00:05;;;;;;;0.30;0.30;;;11.60;73.20;;;;;;5033928;28;20484;-71
2021/06/02 01:02:33;;;;;;;1.45;0.65;;;11.80;73.80;;;;;;5034873;28;20517;-72
2021/06/02 01:04:59;;;;;;;0.30;0.30;;;12.00;72.80;;;;;;5034933;28;20067;-72
2021/06/02 01:07:26;;;;;;;0.20;0.20;;;12.20;72.10;;;;;;5034819;28;20029;-72
2021/06/02 01:09:56;;;;;;;0.20;0.20;;;12.20;71.40;;;;;;5034834;28;20029;-72
2021/06/02 01:12:24;;;;;;;0.20;0.20;;;12.10;71.80;;;;;;5034865;28;20033;-73
2021/06/02 01:14:51;;;;;;;0.38;0.38;;;12.30;71.40;;;;;;5033633;28;20508;-72
2021/06/02 01:17:20;;;;;;;8.63;2.42;;;12.40;71.30;;;;;;5034670;28;20087;-72
2021/06/02 01:19:46;;;;;;;0.20;0.20;;;12.40;71.40;;;;;;5034718;28;20028;-72
2021/06/02 01:22:13;;;;;;;0.20;0.20;;;12.40;70.90;;;;;;5034471;28;20504;-72
2021/06/02 01:24:39;;;;;;;0.20;0.20;;;12.20;71.60;;;;;;5034611;28;20053;-72
2021/06/02 01:27:08;;;;;;;0.20;0.20;;;12.20;71.50;;;;;;5033231;28;20057;-72
2021/06/02 01:29:37;;;;;;;0.20;0.20;;;12.00;72.40;;;;;;5034495;28;20028;-72
2021/06/02 01:32:27;;;;;;;0.20;0.20;;;12.10;72.30;;;;;;5033209;28;20431;-72
2021/06/02 01:35:11;;;;;;;1.42;1.42;;;12.20;72.10;;;;;;5034354;28;20087;-71
2021/06/02 01:38:01;;;;;;;0.35;0.35;;;12.40;71.40;;;;;;5034359;28;20485;-72
2021/06/02 01:40:27;;;;;;;0.20;0.20;;;12.20;71.30;;;;;;5034099;28;20424;-72
2021/06/02 01:43:30;;;;;;;9.75;7.78;;;11.80;72.40;;;;;;5034175;28;20088;-72
2021/06/02 01:46:33;;;;;;;1.17;1.08;;;11.30;74.40;;;;;;5034153;28;20022;-72
2021/06/02 01:49:29;;;;;;;0.20;0.20;;;11.20;75.80;;;;;;5034177;28;20037;-72
2021/06/02 01:52:37;;;;;;;0.20;0.20;;;11.00;76.50;;;;;;5032698;28;20477;-72
2021/06/02 01:55:24;;;;;;;1.13;0.40;;;11.20;76.50;;;;;;5033995;28;20100;-72
2021/06/02 01:57:59;;;;;;;0.20;0.20;;;11.50;75.50;;;;;;5033856;28;20033;-72
2021/06/02 02:00:59;;;;;;;0.20;0.20;;;11.50;75.20;;;;;;5033919;28;20032;-72
2021/06/02 02:04:02;;;;;;;1.10;1.00;;;11.50;74.60;;;;;;5033764;28;20029;-72
2021/06/02 02:07:04;;;;;;;0.20;0.20;;;11.20;74.80;;;;;;5033818;28;20525;-72
2021/06/02 02:09:58;;;;;;;0.20;0.20;;;11.30;76.50;;;;;;5033779;28;20022;-73
2021/06/02 02:12:36;;;;;;;0.30;0.30;;;11.30;75.90;;;;;;5033652;28;20059;-72
2021/06/02 02:15:29;;;;;;;0.22;0.22;;;11.50;75.20;;;;;;5032533;28;20035;-72
2021/06/02 02:18:19;;;;;;;0.20;0.20;;;11.70;74.70;;;;;;5032195;28;20037;-72
2021/06/02 02:20:51;;;;;;;0.20;0.20;;;11.80;74.10;;;;;;5033506;28;20108;-72
2021/06/02 02:23:23;;;;;;;0.20;0.20;;;11.80;73.70;;;;;;5033522;28;20543;-73
2021/06/02 02:26:22;;;;;;;0.10;0.10;;;11.80;74.10;;;;;;5033323;28;20100;-72
2021/06/02 02:29:23;;;;;;;2.30;0.73;;;11.80;73.40;;;;;;5033424;28;20032;-72
2021/06/02 02:32:10;;;;;;;0.25;0.25;;;11.60;74.10;;;;;;5027491;28;20045;-72
2021/06/02 02:34:56;;;;;;;0.30;0.30;;;11.50;74.90;;;;;;5033175;28;20029;-72
2021/06/02 02:37:47;;;;;;;1.40;1.27;;;11.70;74.40;;;;;;5031759;28;20087;-71
2021/06/02 02:40:32;;;;;;;0.20;0.20;;;11.80;74.30;;;;;;5033224;28;20035;-72
2021/06/02 02:43:25;;;;;;;0.52;0.52;;;11.60;74.60;;;;;;5033161;28;20025;-71
2021/06/02 02:46:10;;;;;;;0.20;0.20;;;11.40;74.90;;;;;;5013731;28;20037;-72
2021/06/02 02:48:44;;;;;;;1.02;0.82;;;11.30;75.50;;;;;;5031723;28;20079;-72
2021/06/02 02:51:41;;;;;;;0.68;0.68;;;11.10;75.70;;;;;;5032867;28;20400;-71
2021/06/02 02:54:18;;;;;;;0.20;0.20;;;11.10;76.50;;;;;;5031818;28;20477;-72
2021/06/02 02:57:13;;;;;;;0.20;0.20;;;11.10;76.30;;;;;;5031521;28;20018;-72
2021/06/02 02:59:44;;;;;;;0.20;0.20;;;11.00;77.20;;;;;;5032914;28;20028;-72
2021/06/02 03:02:32;;;;;;;1.38;1.27;;;11.00;77.60;;;;;;5032631;28;20021;-72
2021/06/02 03:05:00;;;;;;;0.20;0.20;;;11.10;76.40;;;;;;5032809;28;20528;-72
2021/06/02 03:07:30;;;;;;;0.20;0.20;;;11.00;76.90;;;;;;5032536;28;20029;-72
2021/06/02 03:10:01;;;;;;;0.20;0.20;;;10.80;77.00;;;;;;5032617;28;20104;-72
2021/06/02 03:12:48;;;;;;;0.30;0.30;;;11.00;77.70;;;;;;5032347;28;20488;-71
2021/06/02 03:15:46;;;;;;;0.10;0.10;;;11.10;77.10;;;;;;5032877;28;20053;-72
2021/06/02 03:18:36;;;;;;;0.20;0.20;;;11.00;77.40;;;;;;5031969;28;20046;-72
2021/06/02 03:21:14;;;;;;;3.33;2.35;;;11.00;77.10;;;;;;5032393;28;20037;-72
2021/06/02 03:24:07;;;;;;;0.20;0.20;;;11.20;76.60;;;;;;5031304;28;20426;-72
2021/06/02 03:26:38;;;;;;;0.20;0.20;;;11.20;76.80;;;;;;5032213;28;20071;-72
2021/06/02 03:29:13;;;;;;;0.20;0.20;;;11.20;76.20;;;;;;5032380;28;20477;-72
2021/06/02 03:32:04;;;;;;;0.50;0.50;;;11.20;76.60;;;;;;5030933;28;20098;-71
2021/06/02 03:34:50;;;;;;;0.20;0.20;;;11.30;76.10;;;;;;5032223;28;20025;-72
2021/06/02 03:37:38;;;;;;;0.20;0.20;;;11.10;76.30;;;;;;5032202;28;20029;-72
2021/06/02 03:40:14;;;;;;;0.20;0.20;;;10.90;76.70;;;;;;5031872;28;20021;-72
2021/06/02 03:42:43;;;;;;;0.38;0.38;;;10.70;77.70;;;;;;5030606;28;20083;-72
2021/06/02 03:45:24;;;;;;;0.20;0.20;;;10.70;77.30;;;;;;5032116;28;20426;-72
2021/06/02 03:47:59;;;;;;;0.30;0.30;;;10.80;78.50;;;;;;5030921;28;20100;-72
2021/06/02 03:50:29;;;;;;;0.70;0.45;;;10.90;78.40;;;;;;5031337;28;20075;-72
2021/06/02 03:53:33;;;;;;;0.20;0.20;;;10.90;78.30;;;;;;5031994;28;20021;-72
2021/06/02 03:56:19;;;;;;;0.20;0.20;;;11.10;78.00;;;;;;4994998;28;20038;-72
2021/06/02 03:59:22;;;;;;;0.20;0.20;;;11.10;77.30;;;;;;5031816;28;20488;-72
2021/06/02 04:01:52;;;;;;;0.20;0.20;;;11.20;77.40;;;;;;5030537;28;20105;-72
2021/06/02 04:04:21;;;;;;;0.20;0.20;;;11.30;77.40;;;;;;5032212;28;20100;-72
2021/06/02 04:06:54;;;;;;;0.20;0.20;;;11.40;77.00;;;;;;5030373;28;20100;-71
2021/06/02 04:09:25;;;;;;;1.17;0.93;;;11.50;77.10;;;;;;5031907;28;20022;-72
2021/06/02 04:12:01;;;;;;;0.17;0.17;;;11.50;76.20;;;;;;5030317;28;20022;-72
2021/06/02 04:14:33;;;;;;;0.20;0.20;;;11.60;76.90;;;;;;5031690;28;20113;-72
2021/06/02 04:17:00;;;;;;;0.30;0.30;;;11.70;76.40;;;;;;5031478;28;20034;-72
2021/06/02 04:19:33;;;;;;;0.30;0.30;;;11.80;75.80;;;;;;5030399;28;20057;-72
2021/06/02 04:22:07;;;;;;;0.20;0.20;;;11.70;76.40;;;;;;5031579;28;20036;-72
2021/06/02 04:24:34;;;;;;;0.20;0.20;;;11.50;77.30;;;;;;5031647;28;20048;-72
2021/06/02 04:27:01;;;;;;;0.20;0.20;;;11.30;78.70;;;;;;5031544;28;20060;-70
2021/06/02 04:29:27;;;;;;;0.22;0.22;;;11.30;79.30;;;;;;5030329;28;20025;-72
2021/06/02 04:32:02;;;;;;;0.50;0.50;;;11.40;78.80;;;;;;5031470;28;20428;-72
2021/06/02 04:34:29;;;;;;;0.20;0.20;;;11.60;78.20;;;;;;5031618;28;20029;-72
2021/06/02 04:36:57;;;;;;;1.05;0.93;;;11.70;77.90;;;;;;5031661;28;20030;-72
2021/06/02 04:39:25;;;;;;;0.30;0.30;;;11.70;77.80;;;;;;5031358;28;20056;-72
2021/06/02 04:41:56;;;;;;;3.55;3.20;;;11.70;78.20;;;;;;5031368;28;20025;-72
2021/06/02 04:44:23;;;;;;;0.20;0.20;;;12.00;77.70;;;;;;5031523;28;20072;-71
2021/06/02 04:46:49;;;;;;;0.20;0.20;;;12.10;76.90;;;;;;5029946;28;20037;-72
2021/06/02 04:49:16;;;;;;;0.40;0.40;;;12.10;77.40;;;;;;5030332;28;20026;-72
2021/06/02 04:51:42;;;;;;;0.30;0.30;;;12.20;78.40;;;;;;5031441;28;20049;-72
2021/06/02 04:54:48;;;;;;;1.13;1.10;;;12.20;79.30;;;;;;5031458;28;20053;-72
2021/06/02 04:57:33;;;;;;;0.13;0.13;;;12.40;79.50;;;;;;5031218;28;20021;-72
2021/06/02 05:00:26;;;;;;;0.30;0.30;;;12.60;79.40;;;;;;5031184;28;20048;-72
2021/06/02 05:03:25;;;;;;;0.20;0.20;;;12.70;79.50;;;;;;5034991;28;20107;-71
2021/06/02 05:06:15;;;;;;;0.20;0.20;;;13.00;79.60;;;;;;5033737;28;20401;-71
2021/06/02 05:08:59;;;;;;;0.10;0.10;;;13.20;79.80;;;;;;5033559;28;20037;-72
2021/06/02 05:11:49;;;;;;;0.20;0.20;;;13.40;78.90;;;;;;5034834;28;20389;-72
2021/06/02 05:14:57;;;;;;;0.20;0.20;;;13.30;79.40;;;;;;5034780;28;20473;-72
2021/06/02 05:17:22;;;;;;;0.50;0.50;;;13.20;79.30;;;;;;5034469;28;20083;-72
2021/06/02 05:20:24;;;;;;;0.47;0.47;;;13.00;80.10;;;;;;5034681;28;20022;-72
2021/06/02 05:23:10;;;;;;;0.32;0.32;;;12.90;80.70;;;;;;5033433;28;20104;-72
2021/06/02 05:25:55;;;;;;;2.15;1.48;;;13.00;80.50;;;;;;5034427;28;20426;-72
2021/06/02 05:28:36;;;;;;;2.45;1.35;;;12.90;80.30;;;;;;5034604;28;20026;-72
2021/06/02 05:31:35;;;;;;;0.22;0.22;;;12.80;81.30;;;;;;5034424;28;20025;-72
2021/06/02 05:34:38;;;;;;;0.20;0.20;;;12.90;82.30;;;;;;5026173;28;20448;-72
2021/06/02 05:37:32;;;;;;;0.50;0.50;;;13.20;80.30;;;;;;5014428;28;20014;-72
2021/06/02 05:40:22;;;;;;;0.10;0.10;;;13.60;79.30;;;;;;5029803;28;20061;-71
2021/06/02 05:43:15;;;;;;;0.20;0.20;;;13.80;78.20;;;;;;5014542;28;20141;-72
2021/06/02 05:46:08;;;;;;;0.10;0.10;;;14.00;78.20;;;;;;5014223;28;20025;-72
2021/06/02 05:49:12;;;;;;;0.28;0.28;;;14.30;77.50;;;;;;5014138;28;20033;-72
2021/06/02 05:51:59;;;;;;;0.20;0.20;;;14.50;75.80;;;;;;5029417;28;20021;-72
2021/06/02 05:54:43;;;;;;;0.10;0.10;;;14.70;74.80;;;;;;5014453;28;20096;-72
2021/06/02 05:57:34;;;;;;;0.57;0.57;;;14.90;74.20;;;;;;5014238;28;20405;-72
2021/06/02 06:00:37;;;;;;;0.28;0.28;;;15.10;71.90;;;;;;5029507;28;20034;-72
2021/06/02 06:03:24;;;;;;;0.15;0.15;;;15.20;70.60;;;;;;5012729;28;20534;-72
2021/06/02 06:06:22;;;;;;;2.20;0.55;;;15.40;70.00;;;;;;5013940;28;20080;-72
2021/06/02 06:09:21;;;;;;;0.20;0.20;;;15.50;68.20;;;;;;5016120;28;20045;-72
2021/06/02 06:12:42;;;;;;;0.22;0.22;;;15.50;67.30;;;;;;5026614;28;20541;-72
2021/06/02 06:15:23;;;;;;;0.20;0.20;;;15.60;68.00;;;;;;5033719;28;20029;-72
2021/06/02 06:18:06;;;;;;;0.80;0.80;;;15.80;67.40;;;;;;5033227;28;20041;-72
2021/06/02 06:21:02;;;;;;;0.40;0.40;;;15.90;66.90;;;;;;5033374;28;20029;-70
2021/06/02 06:23:38;;;;;;;0.10;0.10;;;16.00;66.30;;;;;;5029119;28;20014;-72
2021/06/02 06:26:30;;;;;;;0.13;0.13;;;16.20;66.80;;;;;;5013436;28;20018;-72
2021/06/02 06:29:24;;;;;;;0.10;0.10;;;16.50;65.20;;;;;;5013452;28;20026;-72
2021/06/02 06:31:52;;;;;;;0.10;0.10;;;16.60;64.50;;;;;;5020028;28;20042;-72
2021/06/02 06:34:23;;;;;;;0.13;0.13;;;16.80;64.10;;;;;;5033300;28;20424;-72
2021/06/02 06:36:53;;;;;;;0.10;0.10;;;17.00;64.10;;;;;;5030626;28;20068;-72
2021/06/02 06:39:46;;;;;;;0.30;0.30;;;17.20;63.20;;;;;;5033457;28;20022;-72
2021/06/02 06:42:16;;;;;;;0.20;0.20;;;17.40;62.90;;;;;;5046579;28;20033;-72
2021/06/02 06:44:45;;;;;;;0.10;0.10;;;17.60;61.80;;;;;;5045078;28;20501;-72
2021/06/02 06:47:14;;;;;;;0.10;0.10;;;17.60;62.90;;;;;;5038103;28;20152;-72
2021/06/02 06:49:44;;;;;;;0.10;0.10;;;17.90;63.50;;;;;;5037369;28;20018;-72
2021/06/02 06:52:11;;;;;;;0.20;0.20;;;17.90;63.20;;;;;;5037108;28;20028;-72
2021/06/02 06:54:40;;;;;;;0.95;0.45;;;17.90;63.30;;;;;;5037953;28;20053;-72
2021/06/02 06:57:07;;;;;;;0.10;0.10;;;18.00;62.90;;;;;;5038476;28;20021;-72
2021/06/02 06:59:34;;;;;;;0.10;0.10;;;18.20;62.60;;;;;;5042807;28;20030;-72
2021/06/02 07:02:00;;;;;;;0.10;0.10;;;18.40;61.30;;;;;;5045695;28;20051;-73
2021/06/02 07:04:32;;;;;;;0.20;0.20;;;18.50;61.10;;;;;;5038334;28;20552;-72
2021/06/02 07:06:58;;;;;;;;;;;18.40;60.30;;;;;;5047511;28;20025;-76
2021/06/02 07:09:24;;;;;;;0.10;0.10;;;18.50;60.00;;;;;;5045285;28;19913;-76
2021/06/02 07:11:54;;;;;;;0.10;0.10;;;18.60;60.00;;;;;;5025155;28;20021;-76
2021/06/02 07:14:29;;;;;;;0.20;0.20;;;18.60;59.90;;;;;;5028272;28;20028;-76
2021/06/02 07:16:57;;;;;;;0.20;0.20;;;18.80;59.00;;;;;;5050148;28;20101;-76
2021/06/02 07:19:24;;;;;;;0.43;0.40;;;18.80;58.70;;;;;;5039362;28;20033;-76
2021/06/02 07:21:51;;;;;;;3.20;0.32;;;18.90;58.20;;;;;;5043581;28;20024;-76
2021/06/02 07:24:19;;;;;;;0.60;0.60;;;19.00;57.70;;;;;;5043982;28;20025;-76
2021/06/02 07:26:46;;;;;;;0.10;0.10;;;19.00;57.40;;;;;;5040411;28;20071;-76
2021/06/02 07:29:12;;;;;;;0.10;0.10;;;19.10;56.80;;;;;;5034600;28;20301;-76
2021/06/02 07:31:38;;;;;;;0.30;0.30;;;19.30;55.60;;;;;;5042011;28;20028;-76
2021/06/02 07:34:05;;;;;;;0.20;0.20;;;19.30;55.60;;;;;;5042170;28;20026;-76
2021/06/02 07:36:31;;;;;;;0.10;0.10;;;19.40;55.30;;;;;;5048697;28;20112;-76
2021/06/02 07:38:57;;;;;;;0.40;0.30;;;19.50;55.30;;;;;;5035954;28;20017;-72
2021/06/02 07:41:23;;;;;;;0.10;0.10;;;19.80;55.10;;;;;;5039630;28;20022;-72
2021/06/02 07:43:48;;;;;;;0.70;0.70;;;19.90;54.70;;;;;;5034537;28;20113;-72
2021/06/02 07:46:14;;;;;;;0.45;0.35;;;19.90;54.10;;;;;;5038825;28;20104;-75
2021/06/02 07:48:40;;;;;;;0.10;0.10;;;19.70;54.30;;;;;;5045049;28;20035;-75
2021/06/02 07:51:06;;;;;;;0.73;0.52;;;20.00;54.60;;;;;;5038533;28;20783;-75
2021/06/02 07:53:32;;;;;;;0.30;0.30;;;20.10;53.50;;;;;;5018712;28;20021;-75
2021/06/02 07:55:57;;;;;;;0.30;0.30;;;20.30;53.80;;;;;;5034264;28;20053;-75
2021/06/02 07:58:23;;;;;;;0.30;0.30;;;20.40;53.50;;;;;;5040552;28;20048;-75
2021/06/02 08:00:49;;;;;;;0.40;0.40;;;20.70;52.50;;;;;;5035046;28;20131;-74
2021/06/02 08:03:14;;;;;;;0.43;0.43;;;20.60;52.10;;;;;;5051231;28;20047;-75
2021/06/02 08:05:40;;;;;;;0.32;0.32;;;20.70;52.20;;;;;;5045382;28;20025;-74
2021/06/02 08:08:07;;;;;;;0.03;0.03;;;21.10;51.70;;;;;;5050598;28;20504;-74
2021/06/02 08:10:33;;;;;;;2.35;0.68;;;21.40;51.70;;;;;;5039427;28;20026;-74
2021/06/02 08:13:01;;;;;;;0.68;0.68;;;21.30;51.50;;;;;;5038976;28;20091;-75
2021/06/02 08:15:28;;;;;;;0.20;0.20;;;21.00;51.60;;;;;;5033404;28;20029;-76
2021/06/02 08:17:54;;;;;;;0.35;0.35;;;21.30;51.60;;;;;;5024983;28;20037;-74
2021/06/02 08:20:20;;;;;;;0.30;0.30;;;21.70;50.50;;;;;;5034854;28;20492;-75
2021/06/02 08:22:46;;;;;;;0.10;0.10;;;22.00;49.30;;;;;;5044607;28;20033;-76
2021/06/02 08:25:14;;;;;;;0.00;0.00;;;21.80;49.40;;;;;;5029979;28;20021;-76
2021/06/02 08:27:40;;;;;;;0.43;0.43;;;21.80;49.60;;;;;;5040235;28;20096;-76
2021/06/02 08:30:09;;;;;;;0.17;0.17;;;22.20;48.70;;;;;;5040081;28;20485;-76
2021/06/02 08:32:36;;;;;;;0.17;0.17;;;22.30;48.10;;;;;;5039180;28;20026;-76
2021/06/02 08:35:02;;;;;;;0.20;0.20;;;22.40;48.30;;;;;;5039887;28;20032;-77
2021/06/02 08:37:28;;;;;;;0.00;0.00;;;22.50;47.60;;;;;;5041399;28;20036;-76
2021/06/02 08:39:53;;;;;;;0.38;0.38;;;22.80;47.70;;;;;;5034410;28;20029;-76
2021/06/02 08:42:19;;;;;;;0.10;0.10;;;22.90;47.80;;;;;;5038768;28;20489;-76
2021/06/02 08:44:45;;;;;;;0.10;0.10;;;23.30;47.40;;;;;;5041126;28;20092;-76
2021/06/02 08:47:12;;;;;;;1.90;1.75;;;23.10;47.20;;;;;;5036990;28;20025;-76
2021/06/02 08:49:38;;;;;;;0.10;0.10;;;23.30;46.60;;;;;;5033278;28;20096;-77
2021/06/02 08:52:05;;;;;;;0.10;0.10;;;23.70;46.20;;;;;;5025992;28;20085;-75
2021/06/02 08:54:31;;;;;;;0.77;0.77;;;23.70;43.90;;;;;;5027715;28;20021;-76
2021/06/02 08:57:02;;;;;;;0.00;0.00;;;23.30;42.80;;;;;;5041535;28;20033;-76
2021/06/02 08:59:28;;;;;;;0.25;0.25;;;23.00;45.70;;;;;;5029277;28;20021;-76
2021/06/02 09:01:54;;;;;;;0.10;0.10;;;23.60;44.80;;;;;;5034789;28;20041;-77
2021/06/02 09:04:20;;;;;;;1.25;0.70;;;23.90;43.90;;;;;;5036228;28;20485;-77
2021/06/02 09:06:47;;;;;;;0.03;0.03;;;24.10;42.20;;;;;;5016871;28;20017;-77
2021/06/02 09:09:15;;;;;;;0.25;0.25;;;24.30;42.50;;;;;;5034726;28;20025;-76
2021/06/02 09:11:46;;;;;;;0.10;0.10;;;24.50;39.70;;;;;;5026554;28;20484;-76
2021/06/02 09:14:34;;;;;;;0.15;0.15;;;25.00;39.20;;;;;;5028039;28;20385;-79
2021/06/02 09:17:06;;;;;;;0.75;0.60;;;25.10;38.00;;;;;;5006673;28;20468;-78
2021/06/02 09:19:44;;;;;;;;;;;24.60;36.20;;;;;;5044202;28;20395;-76
2021/06/02 09:22:18;;;;;;;0.10;0.10;;;24.50;38.10;;;;;;5027627;28;19913;-76
2021/06/02 09:24:58;;;;;;;0.00;0.00;;;24.90;39.60;;;;;;5042179;28;20072;-77
2021/06/02 09:27:44;;;;;;;0.17;0.17;;;25.00;37.30;;;;;;5043433;28;20025;-76
2021/06/02 09:30:20;;;;;;;0.00;0.00;;;24.70;37.10;;;;;;5033652;28;20420;-76
2021/06/02 09:32:49;;;;;;;5.57;0.55;;;24.80;37.70;;;;;;5037551;28;20478;-77
2021/06/02 09:35:16;;;;;;;0.03;0.03;;;25.00;36.10;;;;;;5035805;28;20532;-76
2021/06/02 09:37:50;;;;;;;0.10;0.10;;;24.80;35.10;;;;;;5043608;28;20022;-76
2021/06/02 09:40:25;;;;;;;0.00;0.00;;;25.20;36.60;;;;;;5038306;28;20036;-76
2021/06/02 09:42:51;;;;;;;1.00;0.57;;;25.40;35.50;;;;;;5041678;28;20033;-76
2021/06/02 09:45:17;;;;;;;4.13;1.42;;;25.50;35.20;;;;;;5040068;28;20028;-77
2021/06/02 09:47:52;;;;;;;0.15;0.15;;;25.30;35.10;;;;;;5037685;28;20022;-76
2021/06/02 09:50:21;;;;;;;0.03;0.03;;;25.50;36.20;;;;;;5022555;28;20025;-76
2021/06/02 09:52:48;;;;;;;0.00;0.00;;;25.40;36.00;;;;;;5043186;28;20477;-77
2021/06/02 09:55:41;;;;;;;0.10;0.10;;;25.60;36.50;;;;;;5037697;28;20108;-77
2021/06/02 09:58:07;;;;;;;0.10;0.10;;;26.00;34.90;;;;;;5046031;28;20056;-78
2021/06/02 10:00:53;;;;;;;0.38;0.38;;;26.50;35.60;;;;;;5040176;28;20021;-76
2021/06/02 10:03:21;;;;;;;0.63;0.30;;;26.40;35.10;;;;;;5041540;28;20029;-76
2021/06/02 10:05:49;;;;;;;4.95;1.00;;;26.40;35.30;;;;;;5022819;28;20021;-75
2021/06/02 10:08:27;;;;;;;0.82;0.65;;;26.60;35.10;;;;;;5040471;28;20018;-76
2021/06/02 10:10:55;;;;;;;0.00;0.00;;;25.70;35.10;;;;;;5041724;28;20628;-76
2021/06/02 10:13:22;;;;;;;0.20;0.20;;;26.10;35.30;;;;;;5037497;28;20114;-75
2021/06/02 10:15:53;;;;;;;0.13;0.13;;;26.90;34.80;;;;;;5035504;28;20035;-76
2021/06/02 10:18:24;;;;;;;0.82;0.82;;;26.80;35.10;;;;;;5046008;28;20040;-75
2021/06/02 10:21:02;;;;;;;;;;;26.70;34.60;;;;;;5033292;28;20030;-77
2021/06/02 10:23:30;;;;;;;2.03;0.25;;;26.20;35.70;;;;;;5041330;28;20335;-76
2021/06/02 10:26:00;;;;;;;0.50;0.22;;;26.60;35.10;;;;;;5046760;28;20017;-76
2021/06/02 10:28:26;;;;;;;1.20;0.50;;;27.30;34.70;;;;;;5042631;28;20056;-78
2021/06/02 10:30:53;;;;;;;1.45;0.70;;;27.20;34.20;;;;;;5036206;28;20380;-77
2021/06/02 10:33:18;;;;;;;1.35;1.25;;;26.40;35.30;;;;;;5043688;28;20028;-76
2021/06/02 10:35:44;;;;;;;0.20;0.20;;;26.50;35.50;;;;;;5047154;28;20027;-77
2021/06/02 10:38:12;;;;;;;0.20;0.20;;;27.10;35.70;;;;;;5037628;28;20044;-77
2021/06/02 10:40:41;;;;;;;0.20;0.20;;;26.60;34.60;;;;;;5041672;28;20041;-76
2021/06/02 10:43:11;;;;;;;0.70;0.70;;;26.30;37.00;;;;;;5046355;28;20029;-77
2021/06/02 10:46:02;;;;;;;0.20;0.20;;;27.30;35.40;;;;;;5038792;28;20060;-76
2021/06/02 10:48:49;;;;;;;41.43;1.83;;;27.80;34.90;;;;;;5033250;28;20025;-78
2021/06/02 10:51:26;;;;;;;1.00;0.85;;;28.00;34.20;;;;;;5036755;28;20367;-76
2021/06/02 10:54:06;;;;;;;0.00;0.00;;;27.20;33.70;;;;;;5032254;28;20029;-76
2021/06/02 10:56:33;;;;;;;1.45;1.30;;;27.30;35.00;;;;;;5041799;28;20507;-77
2021/06/02 10:59:00;;;;;;;0.00;0.00;;;27.40;34.00;;;;;;5046712;28;20026;-77
2021/06/02 11:01:27;;;;;;;0.65;0.47;;;27.50;34.50;;;;;;5035556;28;20477;-78
2021/06/02 11:04:11;;;;;;;0.03;0.03;;;28.10;33.60;;;;;;5039871;28;20029;-76
2021/06/02 11:06:39;;;;;;;0.73;0.70;;;28.30;33.20;;;;;;5044727;28;20021;-77
2021/06/02 11:09:12;;;;;;;0.93;0.93;;;28.60;32.90;;;;;;5041242;28;20117;-77
2021/06/02 11:11:41;;;;;;;2.45;0.52;;;27.80;33.10;;;;;;5036554;28;20025;-81
2021/06/02 11:14:20;;;;;;;0.00;0.00;;;27.10;35.00;;;;;;5050647;28;20025;-83
2021/06/02 11:16:45;;;;;;;0.20;0.20;;;27.60;34.30;;;;;;5029379;28;20025;-82
2021/06/02 11:23:10;;;;;;;0.55;0.55;;;27.90;33.10;;;;;;5037542;28;20435;-73
2021/06/02 11:25:36;;;;;;;0.20;0.20;;;28.00;33.20;;;;;;5047663;28;20025;-76
2021/06/02 11:28:04;;;;;;;0.10;0.10;;;27.90;34.10;;;;;;5039792;28;20045;-75
2021/06/02 11:30:31;;;;;;;0.70;0.70;;;27.90;33.70;;;;;;5026140;28;20096;-75
2021/06/02 11:32:59;;;;;;;0.20;0.20;;;27.70;32.70;;;;;;5025876;28;20224;-74
2021/06/02 11:35:55;;;;;;;1.60;1.50;;;28.10;33.40;;;;;;5045104;28;20032;-75
2021/06/02 11:38:23;;;;;;;4.65;0.35;;;28.50;32.50;;;;;;5022859;28;20037;-75
2021/06/02 11:40:49;;;;;;;0.10;0.10;;;28.70;32.80;;;;;;5041480;28;20021;-75
2021/06/02 11:43:16;;;;;;;0.32;0.32;;;28.00;32.70;;;;;;5031514;28;20088;-75
2021/06/02 11:45:43;;;;;;;0.30;0.20;;;28.10;31.40;;;;;;5049120;28;20031;-75
2021/06/02 11:48:12;;;;;;;0.00;0.00;;;28.50;31.90;;;;;;5034128;28;20021;-73
2021/06/02 11:50:38;;;;;;;0.05;0.03;;;28.60;31.20;;;;;;5033005;28;20034;-75
2021/06/02 11:53:04;;;;;;;0.00;0.00;;;28.20;32.40;;;;;;5045448;28;20026;-75
2021/06/02 11:55:33;;;;;;;0.00;0.00;;;27.70;33.00;;;;;;5013391;28;20230;-75
2021/06/02 11:57:59;;;;;;;0.35;0.28;;;27.40;33.70;;;;;;5025414;28;20067;-75
2021/06/02 12:00:30;;;;;;;0.30;0.30;;;27.30;33.90;;;;;;5043514;28;20025;-75
2021/06/02 12:02:59;;;;;;;0.25;0.17;;;27.00;34.60;;;;;;5048846;28;20401;-76
2021/06/02 12:05:25;;;;;;;0.00;0.00;;;27.30;34.00;;;;;;5046917;28;20102;-77
2021/06/02 12:07:56;;;;;;;1.67;0.65;;;27.40;34.20;;;;;;5027978;28;20060;-76
2021/06/02 12:10:52;;;;;;;0.30;0.30;;;27.10;34.20;;;;;;5041367;28;20034;-74
2021/06/02 12:13:34;;;;;;;0.30;0.30;;;27.10;34.20;;;;;;5037632;28;20719;-75
2021/06/02 12:16:03;;;;;;;1.73;0.90;;;27.30;34.10;;;;;;5034132;28;20399;-75
2021/06/02 12:18:40;;;;;;;0.57;0.50;;;27.20;33.40;;;;;;5043305;28;20025;-76
2021/06/02 12:21:27;;;;;;;0.00;0.00;;;26.80;34.20;;;;;;5009794;28;20033;-75
2021/06/02 12:24:03;;;;;;;0.38;0.30;;;26.80;33.70;;;;;;5035913;28;20438;-76
2021/06/02 12:26:31;;;;;;;0.47;0.45;;;26.80;35.20;;;;;;5047230;28;20388;-76
2021/06/02 12:29:03;;;;;;;0.15;0.15;;;26.80;34.00;;;;;;5034448;28;20075;-75
2021/06/02 12:31:35;;;;;;;0.45;0.35;;;26.90;34.40;;;;;;5051639;28;20021;-76
2021/06/02 12:34:01;;;;;;;0.10;0.10;;;27.10;34.20;;;;;;5057839;28;20427;-76
2021/06/02 12:36:27;;;;;;;0.15;0.15;;;27.00;34.60;;;;;;5025180;28;20021;-75
2021/06/02 12:38:53;;;;;;;0.20;0.20;;;27.10;33.80;;;;;;5051425;28;20030;-75
2021/06/02 12:41:24;;;;;;;0.65;0.65;;;26.90;33.80;;;;;;5048939;28;20159;-75
2021/06/02 12:43:51;;;;;;;0.15;0.10;;;26.90;34.60;;;;;;5035758;28;20036;-75
2021/06/02 12:46:18;;;;;;;1.38;0.80;;;26.90;34.90;;;;;;5046256;28;20388;-76
2021/06/02 12:48:45;;;;;;;2.42;0.40;;;26.80;34.20;;;;;;5057288;28;20388;-75
2021/06/02 12:51:23;;;;;;;0.57;0.57;;;26.70;34.10;;;;;;5052427;28;20104;-75
2021/06/02 12:53:50;;;;;;;0.20;0.10;;;26.60;33.20;;;;;;5030348;28;20025;-74
2021/06/02 12:56:17;;;;;;;0.57;0.35;;;26.80;33.00;;;;;;5028341;28;20023;-75
2021/06/02 12:58:54;;;;;;;0.60;0.60;;;26.90;33.30;;;;;;5046933;28;20023;-75
2021/06/02 13:01:21;;;;;;;0.70;0.70;;;26.90;33.50;;;;;;5051784;28;20159;-75
2021/06/02 13:03:50;;;;;;;0.10;0.10;;;26.80;33.40;;;;;;5047923;28;20018;-75
2021/06/02 13:06:18;;;;;;;0.22;0.22;;;26.80;33.70;;;;;;5041300;28;20128;-74
2021/06/02 13:08:44;;;;;;;1.35;1.00;;;26.50;34.70;;;;;;5048827;28;20090;-74
2021/06/02 13:11:12;;;;;;;0.10;0.10;;;26.40;35.00;;;;;;5043770;28;20476;-75
2021/06/02 13:13:39;;;;;;;1.92;0.60;;;26.60;35.20;;;;;;5050914;28;20527;-74
2021/06/02 13:16:07;;;;;;;0.70;0.65;;;26.40;35.30;;;;;;5024831;28;20026;-74
2021/06/02 13:18:33;;;;;;;0.43;0.32;;;26.50;35.00;;;;;;5051404;28;20033;-75
2021/06/02 13:21:20;;;;;;;0.43;0.43;;;26.60;34.20;;;;;;5019139;28;20109;-75
2021/06/02 13:23:46;;;;;;;0.10;0.10;;;26.90;33.80;;;;;;5045711;28;20033;-74
2021/06/02 13:26:14;;;;;;;0.00;0.00;;;26.90;33.50;;;;;;5033574;28;20025;-74
2021/06/02 13:28:54;;;;;;;0.35;0.35;;;27.00;32.80;;;;;;5038001;28;20033;-74
2021/06/02 13:31:22;;;;;;;0.60;0.60;;;27.00;33.50;;;;;;5047571;28;20104;-75